Air Quality Table

TIMESTAMP NO2 SO2 O3 PM10 PM2.5 TEMP HUM AIRPRES WS WD NO
2023-01-30 01:00 11.91 µg/m3 0.19 µg/m3 69.4 µg/m3 16.34 µg/m3 7.48 µg/m3 10.72 °C 89.25 % 1,012.42 mbar 2.9 m/s 104.22 Deg 1.63 µg/m3
2023-01-29 17:00 6.73 µg/m3 0.2 µg/m3 75.1 µg/m3 9.8 µg/m3 4.67 µg/m3 12.59 °C 73.11 % 1,011.12 mbar 3.79 m/s 31.29 Deg 1.09 µg/m3
2023-01-29 09:00 15.51 µg/m3 0.24 µg/m3 55.78 µg/m3 10.87 µg/m3 6.25 µg/m3 9.5 °C 87.26 % 1,009.59 mbar 1.79 m/s 287.2 Deg 1.7 µg/m3
2023-01-29 01:00 21.39 µg/m3 0.24 µg/m3 60.83 µg/m3 18.6 µg/m3 7.12 µg/m3 9.48 °C 86 % 1,008.04 mbar 2.02 m/s 298.19 Deg 1.75 µg/m3
2023-01-28 17:00 30.56 µg/m3 0.35 µg/m3 55.44 µg/m3 12.79 µg/m3 7.29 µg/m3 11.05 °C 77.6 % 1,005.65 mbar 1.71 m/s 298.57 Deg 8.19 µg/m3
2023-01-28 09:00 25.04 µg/m3 0.24 µg/m3 58.28 µg/m3 10.03 µg/m3 6.65 µg/m3 9.68 °C 81.02 % 1,004.64 mbar 1.67 m/s 297.57 Deg 5.15 µg/m3
2023-01-28 01:00 29.97 µg/m3 0.24 µg/m3 46.31 µg/m3 24.99 µg/m3 9.12 µg/m3 10.79 °C 84.59 % 1,003.63 mbar 1.49 m/s 305.32 Deg 2.58 µg/m3
2023-01-27 17:00 21.98 µg/m3 0.25 µg/m3 64.52 µg/m3 16.49 µg/m3 5.83 µg/m3 12.64 °C 75.35 % 999.84 mbar 3.07 m/s 325.94 Deg 4.55 µg/m3
2023-01-27 09:00 20.84 µg/m3 0.21 µg/m3 63.29 µg/m3 8 µg/m3 5.4 µg/m3 10.42 °C 86.94 % 997.66 mbar 2.61 m/s 299.34 Deg 2.41 µg/m3
2023-01-27 01:00 32.92 µg/m3 0.28 µg/m3 47.91 µg/m3 17.33 µg/m3 5.51 µg/m3 9.1 °C 85.46 % 1,000.49 mbar 1.48 m/s 292.05 Deg 2.3 µg/m3
2023-01-26 17:00 19.69 µg/m3 0.39 µg/m3 68.35 µg/m3 28.67 µg/m3 9.04 µg/m3 12.96 °C 57.71 % 1,001.10 mbar 3.61 m/s 270.84 Deg 9.59 µg/m3
2023-01-26 09:00 39.52 µg/m3 0.48 µg/m3 47.57 µg/m3 16.3 µg/m3 5.87 µg/m3 10.33 °C 76.55 % 1,003.81 mbar 1.72 m/s 307.46 Deg 20.75 µg/m3
2023-01-26 01:00 45.06 µg/m3 0.39 µg/m3 46.02 µg/m3 37.32 µg/m3 10.88 µg/m3 12.06 °C 68.17 % 1,007.10 mbar 1.47 m/s 269.77 Deg 7.23 µg/m3
2023-01-25 17:00 31.35 µg/m3 0.41 µg/m3 63.97 µg/m3 22.57 µg/m3 7.32 µg/m3 13.84 °C 66.44 % 1,009.07 mbar 1.75 m/s 290.42 Deg 12.92 µg/m3
2023-01-25 09:00 45.21 µg/m3 0.4 µg/m3 39.07 µg/m3 8.61 µg/m3 5.22 µg/m3 11.59 °C 85.1 % 1,010.56 mbar 1.45 m/s 261.77 Deg 16.14 µg/m3
2023-01-25 01:00 2.94 µg/m3 0.16 µg/m3 82.61 µg/m3 9.21 µg/m3 5.03 µg/m3 11.42 °C 86.03 % 1,012.74 mbar 2.67 m/s 137.46 Deg -0.16 µg/m3
2023-01-24 17:00 4.24 µg/m3 0.19 µg/m3 82.24 µg/m3 10.87 µg/m3 5.18 µg/m3 13.15 °C 66.81 % 1,014.39 mbar 5.11 m/s 133.28 Deg 0 µg/m3
2023-01-24 09:00 17.65 µg/m3 0.34 µg/m3 62.38 µg/m3 15.36 µg/m3 5.84 µg/m3 11.54 °C 64.77 % 1,015.85 mbar 1.9 m/s 241.17 Deg 5.3 µg/m3
2023-01-24 01:00 33.42 µg/m3 0.3 µg/m3 47.72 µg/m3 22.03 µg/m3 6.68 µg/m3 11.65 °C 57.97 % 1,015.11 mbar 1.37 m/s 270.4 Deg 2.43 µg/m3
2023-01-23 17:00 13.48 µg/m3 0.29 µg/m3 69.39 µg/m3 16.75 µg/m3 5.77 µg/m3 13.56 °C 53.68 % 1,012.53 mbar 2.27 m/s 252.18 Deg 2.64 µg/m3

It is to be noted that the data is provisional and subject to quality assurance procedures. For validated data kindly refer your request to contact.air@era.org.mt